Time;durP1;ratioP1;P1;durP2;ratioP2;P2;SDS_P1;SDS_P2;PMS_P1;PMS_P2;Temp;Humidity;BMP_temperature;BMP_pressure;BME280_temperature;BME280_humidity;BME280_pressure;Samples;Min_cycle;Max_cycle;Signal;HPM_P1;HPM_P2
2023/10/21 00:00:21;;;;;;;5.63;4.80;;;10.00;99.90;;;;;;5116207;28;20532;-67
2023/10/21 00:02:47;;;;;;;5.45;4.85;;;10.00;99.90;;;;;;5098008;28;20040;-67
2023/10/21 00:05:13;;;;;;;5.75;5.13;;;10.10;99.90;;;;;;5097472;28;20514;-67
2023/10/21 00:07:39;;;;;;;5.35;4.85;;;10.00;99.90;;;;;;5116030;28;20039;-67
2023/10/21 00:10:09;;;;;;;5.97;5.18;;;10.00;99.90;;;;;;5115971;28;20452;-67
2023/10/21 00:12:36;;;;;;;4.97;4.55;;;10.00;99.90;;;;;;5115617;28;20040;-67
2023/10/21 00:15:04;;;;;;;5.20;4.50;;;10.00;99.90;;;;;;5115833;28;20035;-67
2023/10/21 00:17:29;;;;;;;5.22;4.72;;;9.90;99.90;;;;;;5115513;28;20399;-67
2023/10/21 00:19:55;;;;;;;6.45;5.65;;;9.90;99.90;;;;;;5115524;28;20032;-67
2023/10/21 00:22:21;;;;;;;6.18;5.28;;;10.40;99.90;;;;;;5115825;28;20031;-67
2023/10/21 00:24:46;;;;;;;6.72;5.70;;;10.50;99.90;;;;;;5115678;28;20035;-67
2023/10/21 00:27:12;;;;;;;5.45;4.95;;;10.00;99.90;;;;;;5115704;28;20074;-67
2023/10/21 00:29:38;;;;;;;6.22;5.63;;;9.90;99.90;;;;;;5115603;28;20040;-67
2023/10/21 00:32:04;;;;;;;5.78;5.00;;;10.00;99.90;;;;;;5115558;28;20066;-67
2023/10/21 00:34:30;;;;;;;5.43;4.70;;;9.90;99.90;;;;;;5115614;28;20053;-67
2023/10/21 00:36:56;;;;;;;6.50;4.90;;;9.90;99.90;;;;;;5115157;28;20056;-67
2023/10/21 00:39:22;;;;;;;5.25;4.57;;;9.90;99.90;;;;;;5115385;28;20045;-67
2023/10/21 00:41:47;;;;;;;5.20;4.70;;;9.90;99.90;;;;;;5097170;28;20383;-67
2023/10/21 00:44:13;;;;;;;7.05;6.03;;;9.90;99.90;;;;;;5115309;28;20042;-67
2023/10/21 00:46:40;;;;;;;6.18;5.20;;;9.90;99.90;;;;;;5115260;28;20467;-67
2023/10/21 00:49:06;;;;;;;5.45;4.82;;;9.90;99.90;;;;;;5097028;28;20403;-67
2023/10/21 00:51:33;;;;;;;5.90;4.80;;;9.90;99.90;;;;;;5114888;28;20036;-67
2023/10/21 00:54:01;;;;;;;8.50;6.63;;;9.80;99.90;;;;;;5114881;28;20088;-67
2023/10/21 00:56:27;;;;;;;5.70;5.00;;;9.80;99.90;;;;;;5114964;28;20039;-67
2023/10/21 00:58:53;;;;;;;7.18;5.00;;;9.80;99.90;;;;;;5114788;28;20062;-67
2023/10/21 01:01:18;;;;;;;5.75;4.90;;;9.80;99.90;;;;;;5114721;28;20069;-67
2023/10/21 01:03:44;;;;;;;6.22;5.25;;;9.80;99.90;;;;;;5114920;28;20477;-67
2023/10/21 01:06:10;;;;;;;5.38;4.88;;;10.30;99.90;;;;;;5114591;28;20219;-67
2023/10/21 01:08:42;;;;;;;7.05;5.00;;;9.70;99.90;;;;;;5114814;28;20038;-67
2023/10/21 01:11:12;;;;;;;6.50;4.90;;;9.70;99.90;;;;;;5114851;28;20422;-67
2023/10/21 01:13:38;;;;;;;4.95;4.30;;;9.70;99.90;;;;;;5114729;28;20071;-67
2023/10/21 01:16:03;;;;;;;5.50;4.75;;;9.70;99.90;;;;;;5114604;28;20120;-67
2023/10/21 01:18:33;;;;;;;5.60;4.80;;;9.70;99.90;;;;;;5114663;28;20046;-67
2023/10/21 01:21:02;;;;;;;4.63;4.22;;;9.70;99.90;;;;;;5114628;28;20544;-67
2023/10/21 01:23:33;;;;;;;6.32;4.95;;;9.70;99.90;;;;;;5114606;28;20036;-67
2023/10/21 01:26:00;;;;;;;5.72;5.03;;;9.70;99.90;;;;;;5114260;28;20039;-67
2023/10/21 01:28:26;;;;;;;5.70;5.10;;;9.60;99.90;;;;;;5114439;28;20035;-67
2023/10/21 01:30:52;;;;;;;4.78;4.18;;;9.60;99.90;;;;;;5114447;28;20075;-67
2023/10/21 01:33:17;;;;;;;4.30;3.90;;;9.60;99.90;;;;;;5114368;28;20451;-67
2023/10/21 01:35:46;;;;;;;4.95;4.45;;;9.60;99.90;;;;;;5114035;28;20126;-67
2023/10/21 01:38:12;;;;;;;5.15;4.43;;;9.60;99.90;;;;;;5114274;28;20081;-67
2023/10/21 01:40:38;;;;;;;5.47;4.88;;;9.60;99.90;;;;;;5114217;28;20364;-67
2023/10/21 01:43:03;;;;;;;5.88;4.93;;;9.60;99.90;;;;;;5114220;28;20036;-67
2023/10/21 01:45:29;;;;;;;4.97;4.38;;;9.50;99.90;;;;;;5114244;28;20028;-67
2023/10/21 01:47:55;;;;;;;5.10;4.60;;;9.50;99.90;;;;;;5114143;28;20070;-67
2023/10/21 01:50:20;;;;;;;6.30;4.78;;;9.50;99.90;;;;;;5114063;28;20031;-67
2023/10/21 01:52:46;;;;;;;5.50;4.53;;;9.50;99.90;;;;;;5114023;28;20036;-67
2023/10/21 01:55:12;;;;;;;5.03;4.53;;;10.00;99.90;;;;;;5113706;28;20487;-67
2023/10/21 01:57:38;;;;;;;5.60;4.45;;;9.50;99.90;;;;;;5113849;28;20541;-67
2023/10/21 02:00:09;;;;;;;6.13;4.85;;;9.50;99.90;;;;;;5113991;28;20444;-67
2023/10/21 02:02:38;;;;;;;4.47;4.03;;;9.50;99.90;;;;;;5113844;28;20035;-65
2023/10/21 02:05:06;;;;;;;4.72;4.15;;;9.40;99.90;;;;;;5113522;28;20100;-65
2023/10/21 02:07:37;;;;;;;5.63;4.80;;;9.50;99.90;;;;;;5113700;28;20051;-65
2023/10/21 02:10:03;;;;;;;5.38;4.88;;;9.50;99.90;;;;;;5113827;28;20066;-65
2023/10/21 02:12:30;;;;;;;4.88;4.20;;;9.50;99.90;;;;;;5113075;28;20042;-66
2023/10/21 02:14:55;;;;;;;5.15;4.63;;;9.50;99.90;;;;;;5113732;28;20503;-67
2023/10/21 02:17:21;;;;;;;4.93;4.45;;;9.50;99.90;;;;;;5113625;28;20032;-67
2023/10/21 02:19:47;;;;;;;5.40;4.90;;;9.40;99.90;;;;;;5113619;28;20040;-67
2023/10/21 02:22:12;;;;;;;4.97;4.40;;;9.40;99.90;;;;;;5113586;28;20391;-67
2023/10/21 02:24:38;;;;;;;5.60;5.00;;;9.50;99.90;;;;;;5113546;28;20126;-67
2023/10/21 02:27:04;;;;;;;6.65;5.32;;;9.40;99.90;;;;;;5113458;28;20042;-67
2023/10/21 02:29:31;;;;;;;9.15;6.75;;;9.40;99.90;;;;;;5113537;28;20089;-67
2023/10/21 02:31:57;;;;;;;9.75;7.05;;;9.50;99.90;;;;;;5113184;28;20040;-67
2023/10/21 02:34:22;;;;;;;7.20;5.70;;;9.50;99.90;;;;;;5113524;28;20054;-67
2023/10/21 02:36:48;;;;;;;7.00;6.07;;;9.50;99.90;;;;;;5113439;28;20093;-67
2023/10/21 02:39:16;;;;;;;6.15;5.47;;;9.50;99.90;;;;;;5113471;28;20031;-67
2023/10/21 02:41:41;;;;;;;8.43;6.20;;;9.50;99.90;;;;;;5113408;28;20044;-67
2023/10/21 02:44:07;;;;;;;6.63;5.13;;;9.50;99.90;;;;;;5113075;28;20034;-67
2023/10/21 02:46:32;;;;;;;6.47;5.30;;;9.50;99.90;;;;;;5113376;28;20056;-67
2023/10/21 02:48:58;;;;;;;7.20;5.47;;;9.50;99.90;;;;;;5113318;28;20099;-67
2023/10/21 02:51:24;;;;;;;6.90;5.65;;;9.50;99.90;;;;;;5095146;28;20092;-67
2023/10/21 02:53:50;;;;;;;7.38;5.38;;;9.50;99.90;;;;;;5094984;28;20035;-67
2023/10/21 02:56:15;;;;;;;10.15;6.25;;;9.50;99.90;;;;;;5113337;28;20046;-67
2023/10/21 02:58:41;;;;;;;7.20;5.45;;;9.50;99.90;;;;;;5113592;28;20126;-67
2023/10/21 03:01:18;;;;;;;7.70;5.93;;;9.50;99.90;;;;;;5112945;28;20047;-67
2023/10/21 03:03:46;;;;;;;6.97;5.63;;;9.60;99.90;;;;;;5113283;28;20562;-67
2023/10/21 03:06:13;;;;;;;7.88;6.45;;;9.50;99.90;;;;;;5094593;28;20079;-67
2023/10/21 03:08:39;;;;;;;8.75;6.13;;;9.50;99.90;;;;;;5113150;28;20051;-67
2023/10/21 03:11:06;;;;;;;5.38;4.80;;;9.40;99.90;;;;;;5094940;28;20043;-67
2023/10/21 03:13:32;;;;;;;6.20;5.45;;;9.50;99.90;;;;;;5112824;28;20048;-67
2023/10/21 03:15:58;;;;;;;6.60;5.43;;;9.40;99.90;;;;;;5112943;28;20031;-66
2023/10/21 03:18:24;;;;;;;5.97;4.85;;;9.50;99.90;;;;;;5112919;28;20047;-66
2023/10/21 03:20:50;;;;;;;6.15;4.65;;;9.40;99.90;;;;;;5094610;28;20039;-66
2023/10/21 03:23:17;;;;;;;6.80;5.38;;;9.50;99.90;;;;;;5114449;28;20032;-66
2023/10/21 03:25:42;;;;;;;5.55;4.80;;;9.50;99.90;;;;;;5098562;28;20130;-66
2023/10/21 03:28:08;;;;;;;5.53;4.88;;;9.40;99.90;;;;;;5098397;28;20083;-66
2023/10/21 03:30:34;;;;;;;5.45;4.95;;;9.40;99.90;;;;;;5116772;28;20043;-66
2023/10/21 03:33:00;;;;;;;7.50;5.88;;;9.40;99.90;;;;;;5116776;28;20380;-66
2023/10/21 03:35:25;;;;;;;5.38;4.88;;;9.40;99.90;;;;;;5116619;28;20037;-66
2023/10/21 03:37:51;;;;;;;6.07;4.80;;;9.40;99.90;;;;;;5098221;28;20043;-66
2023/10/21 03:40:17;;;;;;;5.47;4.93;;;9.40;99.90;;;;;;5116537;28;20115;-66
2023/10/21 03:42:43;;;;;;;6.20;5.03;;;9.40;99.90;;;;;;5116593;28;20140;-66
2023/10/21 03:45:08;;;;;;;6.25;5.30;;;9.40;99.90;;;;;;5116523;28;20488;-66
2023/10/21 03:47:34;;;;;;;5.07;4.55;;;9.40;99.90;;;;;;5116337;28;20065;-66
2023/10/21 03:50:00;;;;;;;5.90;4.88;;;9.40;99.90;;;;;;5097928;28;20040;-66
2023/10/21 03:52:25;;;;;;;5.05;4.47;;;9.40;99.90;;;;;;5116390;28;20040;-66
2023/10/21 03:54:51;;;;;;;6.45;4.35;;;9.40;99.90;;;;;;5116336;28;20050;-66
2023/10/21 03:57:16;;;;;;;4.63;4.22;;;9.40;99.90;;;;;;5116147;28;20038;-66
2023/10/21 03:59:42;;;;;;;4.35;3.95;;;9.40;99.90;;;;;;5080905;28;20051;-66
2023/10/21 04:02:08;;;;;;;5.25;4.18;;;9.40;99.90;;;;;;5115826;28;20431;-66
2023/10/21 04:04:33;;;;;;;4.20;3.75;;;9.40;99.90;;;;;;5115899;28;20052;-66
2023/10/21 04:06:59;;;;;;;4.93;4.32;;;9.40;99.90;;;;;;5116112;28;20046;-66
2023/10/21 04:09:26;;;;;;;4.32;3.85;;;9.30;99.90;;;;;;5115726;28;20550;-66
2023/10/21 04:11:53;;;;;;;4.68;3.60;;;9.40;99.90;;;;;;5115987;28;20043;-66
2023/10/21 04:14:18;;;;;;;4.65;3.80;;;9.40;99.90;;;;;;5115949;28;20440;-66
2023/10/21 04:16:44;;;;;;;3.83;3.50;;;9.40;99.90;;;;;;5115553;28;20082;-66
2023/10/21 04:19:10;;;;;;;6.80;3.80;;;9.60;99.90;;;;;;5097306;28;20430;-66
2023/10/21 04:21:36;;;;;;;3.30;2.97;;;9.50;99.90;;;;;;5115466;28;20035;-66
2023/10/21 04:24:03;;;;;;;3.45;3.13;;;9.50;99.90;;;;;;5115492;28;20077;-66
2023/10/21 04:26:29;;;;;;;4.00;3.60;;;9.50;99.90;;;;;;5115834;28;20057;-66
2023/10/21 04:28:54;;;;;;;3.70;3.30;;;9.50;99.90;;;;;;5115709;28;20032;-66
2023/10/21 04:31:20;;;;;;;3.80;3.30;;;9.50;99.90;;;;;;5115639;28;20088;-66
2023/10/21 04:33:46;;;;;;;3.85;3.50;;;9.40;99.90;;;;;;5115539;28;20039;-66
2023/10/21 04:36:11;;;;;;;4.05;3.60;;;9.50;99.90;;;;;;5114900;28;20089;-66
2023/10/21 04:38:37;;;;;;;3.78;3.47;;;9.40;99.90;;;;;;5115405;28;20070;-66
2023/10/21 04:41:07;;;;;;;4.18;3.63;;;9.40;99.90;;;;;;5115419;28;20043;-66
2023/10/21 04:43:32;;;;;;;3.40;3.10;;;9.40;99.90;;;;;;5115381;28;20411;-66
2023/10/21 04:45:58;;;;;;;3.50;3.20;;;9.50;99.90;;;;;;5115365;28;20110;-66
2023/10/21 04:48:23;;;;;;;3.22;2.92;;;9.40;99.90;;;;;;5115302;28;20100;-66
2023/10/21 04:50:49;;;;;;;2.80;2.53;;;9.40;99.90;;;;;;5115292;28;20063;-66
2023/10/21 04:53:15;;;;;;;3.60;3.30;;;9.40;99.90;;;;;;5096749;28;20035;-66
2023/10/21 04:55:41;;;;;;;3.53;3.03;;;9.50;99.90;;;;;;5079710;28;20047;-66
2023/10/21 04:58:07;;;;;;;3.95;2.42;;;9.40;99.90;;;;;;5115053;28;20474;-66
2023/10/21 05:00:33;;;;;;;3.92;2.95;;;9.40;99.90;;;;;;5115023;28;20032;-66
2023/10/21 05:02:58;;;;;;;3.22;2.92;;;9.50;99.90;;;;;;5096565;28;20417;-66
2023/10/21 05:05:24;;;;;;;3.20;2.88;;;9.50;99.90;;;;;;5114621;28;20130;-66
2023/10/21 05:07:50;;;;;;;4.05;3.00;;;9.50;99.90;;;;;;5114914;28;20538;-66
2023/10/21 05:10:18;;;;;;;3.95;3.45;;;9.50;99.90;;;;;;5114526;28;20038;-66
2023/10/21 05:12:43;;;;;;;3.05;2.75;;;9.50;99.90;;;;;;5114492;28;20054;-66
2023/10/21 05:15:09;;;;;;;2.95;2.67;;;9.60;99.90;;;;;;5114781;28;20395;-66
2023/10/21 05:17:35;;;;;;;3.80;2.63;;;9.60;99.90;;;;;;5114711;28;20539;-66
2023/10/21 05:20:02;;;;;;;3.67;3.33;;;9.90;99.90;;;;;;5114588;28;20114;-66
2023/10/21 05:22:28;;;;;;;4.15;2.92;;;10.20;99.90;;;;;;5114613;28;20039;-66
2023/10/21 05:24:55;;;;;;;3.65;3.08;;;9.70;99.90;;;;;;5114516;28;20051;-66
2023/10/21 05:27:21;;;;;;;2.90;2.60;;;9.70;99.90;;;;;;5114489;28;20031;-66
2023/10/21 05:29:47;;;;;;;3.15;2.83;;;9.70;99.90;;;;;;5114484;28;20046;-66
2023/10/21 05:32:14;;;;;;;3.38;2.95;;;9.80;99.90;;;;;;5114408;28;20039;-66
2023/10/21 05:34:40;;;;;;;2.40;2.20;;;9.70;99.90;;;;;;5114350;28;20051;-66
2023/10/21 05:37:06;;;;;;;2.40;2.20;;;9.80;99.90;;;;;;5095891;28;20051;-67
2023/10/21 05:39:32;;;;;;;3.17;2.60;;;9.80;99.90;;;;;;5114043;28;20039;-67
2023/10/21 05:41:58;;;;;;;3.75;2.75;;;9.80;99.90;;;;;;5114294;28;20035;-67
2023/10/21 05:44:24;;;;;;;3.95;2.80;;;9.80;99.90;;;;;;5113896;28;20062;-67
2023/10/21 05:46:49;;;;;;;3.78;3.13;;;10.10;99.90;;;;;;5094830;28;20039;-67
2023/10/21 05:49:15;;;;;;;2.75;2.45;;;9.80;99.90;;;;;;5114109;28;20051;-67
2023/10/21 05:51:41;;;;;;;3.40;3.10;;;9.80;99.90;;;;;;5113841;28;20044;-67
2023/10/21 05:54:06;;;;;;;2.97;2.75;;;9.80;99.90;;;;;;5113727;28;20036;-67
2023/10/21 05:56:32;;;;;;;3.42;2.72;;;9.80;99.90;;;;;;5113935;28;20043;-67
2023/10/21 05:58:58;;;;;;;3.30;3.00;;;9.80;99.90;;;;;;5113781;28;20728;-67
2023/10/21 06:01:23;;;;;;;3.38;2.60;;;9.80;99.90;;;;;;5095468;28;20118;-67
2023/10/21 06:03:49;;;;;;;2.80;2.38;;;9.80;99.90;;;;;;5095549;28;20495;-67
2023/10/21 06:06:17;;;;;;;2.90;2.60;;;9.80;99.90;;;;;;5095139;28;20380;-67
2023/10/21 06:08:42;;;;;;;4.25;2.85;;;9.80;99.90;;;;;;5095360;28;20032;-67
2023/10/21 06:11:08;;;;;;;2.83;2.45;;;9.80;99.90;;;;;;5113521;28;20437;-65
2023/10/21 06:13:34;;;;;;;3.00;2.63;;;9.80;99.90;;;;;;5113680;28;20065;-67
2023/10/21 06:15:59;;;;;;;3.03;2.67;;;9.80;99.90;;;;;;5113720;28;20038;-67
2023/10/21 06:18:25;;;;;;;3.30;2.90;;;9.80;99.90;;;;;;5095235;28;20043;-67
2023/10/21 06:20:51;;;;;;;3.08;2.47;;;9.90;99.90;;;;;;5095133;28;20380;-67
2023/10/21 06:23:17;;;;;;;3.08;2.78;;;9.90;99.90;;;;;;5113576;28;20047;-67
2023/10/21 06:25:43;;;;;;;2.78;2.58;;;9.90;99.90;;;;;;5113246;28;20035;-67
2023/10/21 06:28:09;;;;;;;2.90;2.28;;;9.90;99.90;;;;;;5113733;28;20039;-66
2023/10/21 06:30:36;;;;;;;2.72;2.47;;;9.90;99.90;;;;;;5113478;28;20499;-68
2023/10/21 06:33:03;;;;;;;2.67;2.47;;;9.90;99.90;;;;;;5113541;28;20042;-66
2023/10/21 06:35:29;;;;;;;3.60;2.50;;;9.90;99.90;;;;;;5095072;28;20082;-67
2023/10/21 06:37:54;;;;;;;6.95;2.50;;;9.90;99.90;;;;;;5095054;28;20075;-71
2023/10/21 06:40:20;;;;;;;2.70;2.45;;;9.90;99.90;;;;;;5094916;28;20036;-67
2023/10/21 06:42:46;;;;;;;3.30;2.45;;;9.90;99.90;;;;;;5094987;28;20483;-68
2023/10/21 06:45:11;;;;;;;2.65;2.45;;;10.00;99.90;;;;;;5095207;28;20114;-67
2023/10/21 06:47:37;;;;;;;2.72;2.53;;;10.00;99.90;;;;;;5113500;28;20075;-68
2023/10/21 06:50:04;;;;;;;2.60;2.30;;;10.00;99.90;;;;;;5094803;28;20055;-67
2023/10/21 06:52:30;;;;;;;2.88;2.28;;;10.00;99.90;;;;;;5113369;28;20088;-69
2023/10/21 06:54:56;;;;;;;2.47;2.28;;;10.10;99.90;;;;;;5113381;28;20035;-68
2023/10/21 06:57:21;;;;;;;4.28;2.53;;;10.10;99.90;;;;;;5112979;28;20519;-68
2023/10/21 06:59:48;;;;;;;2.80;2.55;;;10.10;99.90;;;;;;5099095;28;20031;-68
2023/10/21 07:02:14;;;;;;;4.53;2.42;;;10.20;99.90;;;;;;5099087;28;20514;-72
2023/10/21 07:04:39;;;;;;;2.42;2.00;;;11.10;99.90;;;;;;5098824;28;20499;-68
2023/10/21 07:07:05;;;;;;;2.78;2.50;;;10.20;99.90;;;;;;5117831;28;20092;-68
2023/10/21 07:09:30;;;;;;;2.42;2.22;;;10.30;99.90;;;;;;5117217;28;20041;-67
2023/10/21 07:11:56;;;;;;;2.85;2.00;;;10.30;99.90;;;;;;5117194;28;20043;-68
2023/10/21 07:14:22;;;;;;;3.28;2.45;;;10.40;99.90;;;;;;5117097;28;20543;-67
2023/10/21 07:16:47;;;;;;;2.55;1.90;;;10.40;99.90;;;;;;5116971;28;20413;-68
2023/10/21 07:19:13;;;;;;;3.00;2.40;;;10.40;99.90;;;;;;5116753;28;20120;-68
2023/10/21 07:21:38;;;;;;;2.45;2.25;;;10.50;99.90;;;;;;5116926;28;20038;-67
2023/10/21 07:24:05;;;;;;;3.13;2.20;;;10.50;99.90;;;;;;5116945;28;20163;-67
2023/10/21 07:26:30;;;;;;;2.33;2.13;;;10.60;99.90;;;;;;5116880;28;20047;-67
2023/10/21 07:28:56;;;;;;;2.53;2.10;;;10.60;99.90;;;;;;5116927;28;20379;-68
2023/10/21 07:31:22;;;;;;;2.58;2.25;;;11.30;99.90;;;;;;5116839;28;20031;-67
2023/10/21 07:33:50;;;;;;;2.17;1.98;;;10.70;99.90;;;;;;5116703;28;20038;-67
2023/10/21 07:36:16;;;;;;;4.03;2.00;;;10.70;99.90;;;;;;5116536;28;20441;-67
2023/10/21 07:38:42;;;;;;;2.85;2.30;;;10.70;99.90;;;;;;5116633;28;20036;-68
2023/10/21 07:41:12;;;;;;;2.17;1.80;;;10.70;99.90;;;;;;5116537;28;20043;-68
2023/10/21 07:43:38;;;;;;;2.13;1.88;;;10.70;99.90;;;;;;5116483;28;20451;-68
2023/10/21 07:46:03;;;;;;;2.95;2.10;;;10.80;99.90;;;;;;5116317;28;20032;-74
2023/10/21 07:48:29;;;;;;;2.70;2.15;;;10.80;99.90;;;;;;5097736;28;20089;-67
2023/10/21 07:50:55;;;;;;;2.38;1.98;;;10.80;99.90;;;;;;5116435;28;20035;-68
2023/10/21 07:53:21;;;;;;;1.90;1.70;;;10.90;99.90;;;;;;5116000;28;20498;-68
2023/10/21 07:55:50;;;;;;;2.95;2.15;;;10.90;99.90;;;;;;5116242;28;20032;-69
2023/10/21 07:58:16;;;;;;;2.30;1.67;;;11.00;99.90;;;;;;5116242;28;20042;-68
2023/10/21 08:00:42;;;;;;;2.13;1.65;;;11.00;99.90;;;;;;5116147;28;20042;-71
2023/10/21 08:03:08;;;;;;;2.13;1.92;;;11.10;99.90;;;;;;5081047;28;20043;-67
2023/10/21 08:05:34;;;;;;;2.00;1.80;;;11.10;99.90;;;;;;5115732;28;20044;-68
2023/10/21 08:07:59;;;;;;;2.47;2.28;;;11.20;99.90;;;;;;5116034;28;20390;-68
2023/10/21 08:10:26;;;;;;;2.30;2.10;;;11.30;99.90;;;;;;5096927;28;20131;-68
2023/10/21 08:12:51;;;;;;;2.10;1.90;;;11.30;99.90;;;;;;5116027;28;20455;-68
2023/10/21 08:15:17;;;;;;;2.03;1.85;;;11.40;99.90;;;;;;5115970;28;20039;-67
2023/10/21 08:17:43;;;;;;;2.30;2.10;;;11.50;99.90;;;;;;5115783;28;20093;-67
2023/10/21 08:20:09;;;;;;;2.50;1.80;;;11.60;99.90;;;;;;5097195;28;20105;-70
2023/10/21 08:22:35;;;;;;;4.68;2.15;;;11.70;99.90;;;;;;5115720;28;20039;-67
2023/10/21 08:25:01;;;;;;;2.38;1.83;;;11.80;99.90;;;;;;5097151;28;20104;-69
2023/10/21 08:27:27;;;;;;;1.88;1.70;;;12.00;99.90;;;;;;5115657;28;20035;-67
2023/10/21 08:29:53;;;;;;;1.60;1.50;;;12.00;99.90;;;;;;5115686;28;20093;-67
2023/10/21 08:32:19;;;;;;;2.55;2.10;;;12.20;99.90;;;;;;5115597;28;20046;-67
2023/10/21 08:34:45;;;;;;;2.30;1.75;;;12.30;99.90;;;;;;5115590;28;20032;-67
2023/10/21 08:37:10;;;;;;;2.15;1.95;;;12.60;99.90;;;;;;5115511;28;20054;-67
2023/10/21 08:39:36;;;;;;;2.05;1.80;;;12.50;99.90;;;;;;5115436;28;20035;-67
2023/10/21 08:42:02;;;;;;;2.03;1.80;;;12.50;99.90;;;;;;5115463;28;20134;-68
2023/10/21 08:44:30;;;;;;;2.40;1.70;;;12.60;99.90;;;;;;5115157;28;20084;-68
2023/10/21 08:46:57;;;;;;;1.98;1.63;;;13.10;99.90;;;;;;5115234;28;20056;-67
2023/10/21 08:49:24;;;;;;;2.58;1.70;;;12.70;99.90;;;;;;5096716;28;20043;-67
2023/10/21 08:51:52;;;;;;;1.80;1.67;;;12.70;99.90;;;;;;5096973;28;20467;-67
2023/10/21 08:54:18;;;;;;;2.30;2.08;;;12.80;99.90;;;;;;5115054;28;20044;-67
2023/10/21 08:56:44;;;;;;;1.80;1.63;;;12.80;99.90;;;;;;5114945;28;20043;-67
2023/10/21 08:59:10;;;;;;;1.70;1.60;;;12.90;99.90;;;;;;5115205;28;20118;-69
2023/10/21 09:01:36;;;;;;;2.13;1.40;;;13.00;99.90;;;;;;5114767;28;20074;-67
2023/10/21 09:04:03;;;;;;;1.70;1.60;;;13.10;99.90;;;;;;5114840;28;20070;-67
2023/10/21 09:06:29;;;;;;;1.65;1.50;;;13.10;99.90;;;;;;5114979;28;20077;-72
2023/10/21 09:08:55;;;;;;;2.10;1.70;;;13.20;99.90;;;;;;5096661;28;20039;-68
2023/10/21 09:11:25;;;;;;;1.65;1.55;;;13.20;99.90;;;;;;5114745;28;20042;-67
2023/10/21 09:13:52;;;;;;;10.27;2.38;;;13.50;99.90;;;;;;5114791;28;20406;-67
2023/10/21 09:16:24;;;;;;;2.15;1.95;;;13.30;99.90;;;;;;5114705;28;20050;-75
2023/10/21 09:19:00;;;;;;;1.73;1.35;;;13.40;99.90;;;;;;5096434;28;20046;-70
2023/10/21 09:21:33;;;;;;;1.50;1.40;;;13.50;99.90;;;;;;5114484;28;20043;-68
2023/10/21 09:24:04;;;;;;;1.42;1.33;;;13.60;99.90;;;;;;5096277;28;20513;-68
2023/10/21 09:26:36;;;;;;;1.77;1.67;;;13.60;99.90;;;;;;5114541;28;20039;-67
2023/10/21 09:29:07;;;;;;;1.63;1.27;;;13.60;99.90;;;;;;5114226;28;20039;-67
2023/10/21 09:31:53;;;;;;;1.65;1.40;;;13.90;99.90;;;;;;5114396;28;20040;-67
2023/10/21 09:34:27;;;;;;;1.50;1.40;;;13.80;99.90;;;;;;5114423;28;20039;-68
2023/10/21 09:36:58;;;;;;;4.00;1.77;;;14.10;99.90;;;;;;5114263;28;20479;-68
2023/10/21 09:39:26;;;;;;;1.23;1.10;;;13.90;99.90;;;;;;5095758;28;20052;-68
2023/10/21 09:43:12;;;;;;;1.40;1.23;;;13.90;99.90;;;;;;5090484;28;20137;-65
2023/10/21 09:45:42;;;;;;;1.80;1.58;;;14.70;99.90;;;;;;5090672;28;20052;-66
2023/10/21 09:48:11;;;;;;;1.17;1.02;;;13.90;99.90;;;;;;5089250;28;20093;-66
2023/10/21 09:50:41;;;;;;;2.15;1.30;;;14.00;99.90;;;;;;5090482;28;20404;-66
2023/10/21 09:53:10;;;;;;;1.30;1.20;;;14.00;99.90;;;;;;5090355;28;20066;-65
2023/10/21 09:55:36;;;;;;;4.65;1.27;;;14.10;99.90;;;;;;5090133;28;20050;-65
2023/10/21 09:58:04;;;;;;;1.23;1.13;;;14.10;99.90;;;;;;5090512;28;20111;-66
2023/10/21 10:00:30;;;;;;;1.25;1.05;;;14.10;99.90;;;;;;5090325;28;20074;-66
2023/10/21 10:02:56;;;;;;;1.20;1.10;;;14.10;99.90;;;;;;5105621;28;20052;-67
2023/10/21 10:05:22;;;;;;;1.05;1.00;;;14.00;99.90;;;;;;5090232;28;20028;-67
2023/10/21 10:07:49;;;;;;;0.82;0.80;;;14.10;99.90;;;;;;5090184;28;20071;-67
2023/10/21 10:10:21;;;;;;;0.88;0.73;;;14.10;99.90;;;;;;5088522;28;20045;-67
2023/10/21 10:12:55;;;;;;;0.85;0.85;;;14.00;99.90;;;;;;5089475;28;20052;-69
2023/10/21 10:15:40;;;;;;;0.80;0.77;;;14.10;99.90;;;;;;5088410;28;20051;-66
2023/10/21 10:18:19;;;;;;;1.48;0.80;;;14.10;99.90;;;;;;5090045;28;20033;-66
2023/10/21 10:20:52;;;;;;;0.40;0.40;;;14.10;99.90;;;;;;5088283;28;20114;-67
2023/10/21 10:23:19;;;;;;;0.45;0.45;;;14.20;99.90;;;;;;5088546;28;20038;-67
2023/10/21 10:25:49;;;;;;;2.08;1.98;;;14.10;99.90;;;;;;5088142;28;20037;-65
2023/10/21 10:28:17;;;;;;;0.73;0.73;;;14.10;99.90;;;;;;5089601;28;20044;-67
2023/10/21 10:30:44;;;;;;;0.40;0.40;;;14.00;99.90;;;;;;5089418;28;20044;-67
2023/10/21 10:33:15;;;;;;;0.55;0.40;;;14.00;99.90;;;;;;5089640;28;20115;-67
2023/10/21 10:35:43;;;;;;;;;;;14.00;99.90;;;;;;5089968;28;20047;-67
2023/10/21 10:38:31;;;;;;;0.30;0.30;;;14.00;99.90;;;;;;5087951;28;19916;-68
2023/10/21 10:41:15;;;;;;;0.50;0.50;;;13.90;99.90;;;;;;5089305;28;20086;-69
2023/10/21 10:43:54;;;;;;;0.30;0.30;;;13.90;99.90;;;;;;5088066;28;20052;-68
2023/10/21 10:46:24;;;;;;;0.50;0.50;;;13.90;99.90;;;;;;5089490;28;20480;-70
2023/10/21 10:48:50;;;;;;;0.57;0.57;;;14.10;99.90;;;;;;5090462;28;20025;-69
2023/10/21 10:51:19;;;;;;;0.43;0.43;;;14.10;99.90;;;;;;5089135;28;20511;-69
2023/10/21 10:53:57;;;;;;;1.90;0.30;;;14.90;99.90;;;;;;5080176;28;20520;-69
2023/10/21 10:56:25;;;;;;;0.70;0.70;;;14.50;99.90;;;;;;5075826;28;20089;-70
2023/10/21 10:58:52;;;;;;;0.40;0.40;;;14.60;99.90;;;;;;5075593;28;20048;-70
2023/10/21 11:01:25;;;;;;;0.50;0.50;;;14.50;99.90;;;;;;5074105;28;20048;-70
2023/10/21 11:03:58;;;;;;;0.40;0.40;;;14.50;99.90;;;;;;5074175;28;20119;-70
2023/10/21 11:06:32;;;;;;;0.40;0.40;;;14.90;99.90;;;;;;5075353;28;20048;-69
2023/10/21 11:08:58;;;;;;;0.40;0.40;;;14.50;99.90;;;;;;5057403;28;20134;-68
2023/10/21 11:11:27;;;;;;;0.52;0.52;;;14.50;99.90;;;;;;5075569;28;20044;-69
2023/10/21 11:13:53;;;;;;;0.52;0.52;;;14.50;99.90;;;;;;5075570;28;20400;-70
2023/10/21 11:16:19;;;;;;;0.52;0.50;;;14.40;99.90;;;;;;5073918;28;20052;-72
2023/10/21 11:18:45;;;;;;;0.50;0.50;;;14.60;99.90;;;;;;5073888;28;20051;-67
2023/10/21 11:21:10;;;;;;;0.65;0.60;;;14.60;99.90;;;;;;5075375;28;20044;-67
2023/10/21 11:23:36;;;;;;;0.40;0.40;;;14.50;99.90;;;;;;5075355;28;20068;-68
2023/10/21 11:26:07;;;;;;;0.32;0.32;;;14.50;99.90;;;;;;5074098;28;20416;-67
2023/10/21 11:28:35;;;;;;;0.52;0.52;;;14.50;99.90;;;;;;5074978;28;20079;-69
2023/10/21 11:31:02;;;;;;;0.40;0.40;;;14.60;99.90;;;;;;5073651;28;20044;-67
2023/10/21 11:33:27;;;;;;;0.38;0.35;;;14.50;99.90;;;;;;5075114;28;20476;-67
2023/10/21 11:35:53;;;;;;;0.30;0.30;;;14.40;99.90;;;;;;5073885;28;20127;-67
2023/10/21 11:38:22;;;;;;;0.40;0.40;;;14.50;99.90;;;;;;5075131;28;20063;-68
2023/10/21 11:40:48;;;;;;;0.57;0.30;;;14.30;99.90;;;;;;5073446;28;20036;-68
2023/10/21 11:43:16;;;;;;;0.73;0.68;;;14.60;99.90;;;;;;5074969;28;20052;-68
2023/10/21 11:45:43;;;;;;;0.50;0.50;;;14.70;99.90;;;;;;5074506;28;20045;-69
2023/10/21 11:48:09;;;;;;;0.77;0.65;;;14.50;99.90;;;;;;5074836;28;20036;-68
2023/10/21 11:50:43;;;;;;;4.55;0.82;;;14.50;99.90;;;;;;5074760;28;20147;-68
2023/10/21 11:53:10;;;;;;;0.70;0.68;;;14.40;99.90;;;;;;5073275;28;20051;-69
2023/10/21 12:04:17;;;;;;;0.40;0.40;;;13.80;99.90;;;;;;5074548;28;20427;-70
2023/10/21 12:12:16;;;;;;;0.65;0.40;;;13.90;99.90;;;;;;5072840;28;20048;-69
2023/10/21 12:15:17;;;;;;;0.50;0.50;;;13.60;99.90;;;;;;5074274;28;20041;-67
2023/10/21 12:24:00;;;;;;;0.38;0.38;;;14.10;99.90;;;;;;5051725;28;20048;-67
2023/10/21 12:30:12;;;;;;;0.40;0.40;;;14.20;99.90;;;;;;5072442;28;20048;-67
2023/10/21 12:40:31;;;;;;;2.70;0.60;;;14.40;99.90;;;;;;5072173;28;20040;-71
2023/10/21 12:45:46;;;;;;;0.45;0.40;;;14.50;99.90;;;;;;5072177;28;20393;-70
2023/10/21 12:48:14;;;;;;;0.60;0.55;;;14.90;99.90;;;;;;5072241;28;20103;-70
2023/10/21 12:50:40;;;;;;;0.25;0.25;;;14.30;99.90;;;;;;5073561;28;20028;-70
2023/10/21 12:53:08;;;;;;;0.50;0.50;;;14.30;99.90;;;;;;5055645;28;20083;-71
2023/10/21 12:55:35;;;;;;;0.40;0.40;;;14.30;99.90;;;;;;5072261;28;20054;-70
2023/10/21 12:58:02;;;;;;;0.50;0.35;;;14.50;99.90;;;;;;5072236;28;20412;-71
2023/10/21 13:00:27;;;;;;;0.77;0.63;;;14.20;99.90;;;;;;5073261;28;20040;-67
2023/10/21 13:02:53;;;;;;;0.52;0.40;;;14.20;99.90;;;;;;5073334;28;20432;-68
2023/10/21 13:05:19;;;;;;;0.52;0.52;;;14.20;99.90;;;;;;5073480;28;20490;-71
2023/10/21 13:07:45;;;;;;;0.32;0.32;;;14.30;99.90;;;;;;5073740;28;20056;-66
2023/10/21 13:10:10;;;;;;;0.45;0.35;;;14.40;99.90;;;;;;5073101;28;20435;-66
2023/10/21 13:12:40;;;;;;;0.70;0.40;;;14.50;99.90;;;;;;5073348;28;20043;-66
2023/10/21 13:15:11;;;;;;;0.50;0.50;;;14.40;99.90;;;;;;5073328;28;20052;-66
2023/10/21 13:17:41;;;;;;;3.70;0.80;;;14.50;99.90;;;;;;5072957;28;20075;-67
2023/10/21 13:20:19;;;;;;;0.30;0.30;;;14.70;99.90;;;;;;5074813;28;20423;-67
2023/10/21 13:22:45;;;;;;;0.52;0.50;;;14.50;99.90;;;;;;5073124;28;20426;-67
2023/10/21 13:25:13;;;;;;;0.40;0.40;;;14.50;99.90;;;;;;5072893;28;20111;-67
2023/10/21 13:27:42;;;;;;;0.35;0.30;;;15.20;99.90;;;;;;5072923;28;20045;-66